Terminal Aerodrome Forecast
Issued by NWS

Home | Current Version | Previous Version | Text Only | Print | Product List | Glossary On
Versions: 1 2 3 4 5 6 7 8 9 10 11 12 13 14 15 16 17
000
FTUS42 TJSJ 010550
TAFJBQ
TAF
TJBQ 010550Z 0106/0206 11008KT P6SM VCSH FEW025 FEW070
     FM011400 08019G25KT P6SM FEW022 SCT050
     FM012230 08010KT P6SM FEW025 SCT050
      AMD NOT SKED TIL 011100=

USA.gov is the U.S. government's official web portal to all federal, state and local government web resources and services.